Thursday, December 18, 2014
00:44 UTC
  |  Log In   |  Register Free
Airport Search:

Olympia Regional Airport
(KOLM)

Airport information sponsored by:
Glacier Jet Center at Olympia Regional (KOLM), Olympia, WA
FAA data valid effective November 13, 2014 - January 08, 2015 (unless otherwise noted).

 
 
 
 
 
 
 
 
 
 
 
 
 
 

Current Aviation Weather for Olympia Regional Airport (KOLM)

The most recent METAR observation for KOLM was updated at: 0025
METAR Summary (Translated METAR)
KOLM
172354Z 00000KT 9SM BKN049 OVC060 08/06 A2986 RMK AO2 SLP111 60000 T00830061 10083 20061 53007
KGRF
172358Z AUTO 15003KT 10SM DZ FEW004 OVC041 07/07 A2985 RMK AO2 SLP114 P0000 60000 T00710070 10076 20055 53009 $
(14.7 nm NE from KOLM)
KCLS
180015Z AUTO 00000KT 10SM OVC046 09/07 A2986 RMK AO2
(17.9 nm SW from KOLM)
TAF Summary (Translated TAF)
KOLM
172100Z 1721/1818 00000KT 6SM BR VCSH SCT006 OVC060 TEMPO 1721/1723 BKN006 OVC060 FM172300 18005KT P6SM VCSH BKN035 BKN060 FM180700 VRB03KT 3SM BR OVC005
KGRF
(14.7 nm NE from KOLM)
1723/1903 VRB06KT 8000 -RA FEW006 SCT050 QNH2982INS TEMPO 1723/1724 BKN006 BECMG 1802/1803 14006KT 6000 -RA BR SCT020 OVC030 620509 QNH2988INS BECMG 1809/1810 15006KT 9999 NSW OVC020 620509 QNH2994INS BECMG 1815/1816 15006KT 9999 SCT030 BKN050 620502 QNH2988INS BECMG 1822/1823 13006KT 9000 -RA SCT030 OVC040 620508 QNH2980INS TX08/1821Z TN04/1815Z AMD 172310
  Airport Weather Conditions for KOLM

 Current Weather at OLM
47° F
Mostly Cloudy
East winds at 3.5 mph
OLM NOAA Radar

Pressure: 29.84 in
Humidity: 86%
Wind: East at 3.5 MPH (3 KT)
Dew Point: 43.0°F
Visibility: 10.00 mi


Airport Weather Forecast for KOLM

Translated METAR and TAF for KOLM
Translated METAR for KOLM (0044 UTC 18 December 2014)
found at http://aviationweather.gov/adds/metars/
 
METAR text: KOLM 172354Z 00000KT 9SM BKN049 OVC060 08/06 A2986 RMK AO2 SLP111 60000 T00830061 10083 20061 53007
Conditions at: KOLM (OLYMPIA , WA, US) observed 2354 UTC 17 December 2014
Temperature: 8.3°C (47°F)
Dewpoint: 6.1°C (43°F) [RH = 86%]
Pressure (altimeter): 29.86 inches Hg (1011.3 mb)
[Sea-level pressure: 1011.1 mb]
Winds: calm
Visibility: 9 miles (14 km)
Ceiling: 4900 feet AGL
Clouds: broken clouds at 4900 feet AGL
overcast cloud deck at 6000 feet AGL
Weather: no significant weather observed at this time
Translated TAF for KOLM
Forecast for: KOLM (OLYMPIA , WA, US)
TAF Text: KOLM 180000Z 1800/1824 00000KT P6SM VCSH BKN050 OVC060
Forecast period: 0000 to 0700 UTC 18 December 2014
Forecast type: FROM: standard forecast or significant change
Winds: calm
Visibility: 6 or more miles (10+ km)
Ceiling: 5000 feet AGL
Clouds: broken clouds at 5000 feet AGL
overcast cloud deck at 6000 feet AGL
Weather: VCSH  (showers in vicinity)
TAF Text: FM180700 VRB03KT 3SM BR OVC005
Forecast period: 0700 UTC 18 December 2014 to 0000 UTC 19 December 2014
Forecast type: FROM: standard forecast or significant change
Winds: variable direction winds at 3 MPH (3 knots; 1.6 m/s)
Visibility: 3 miles (5 km)
Ceiling: 500 feet AGL
Clouds: overcast cloud deck at 500 feet AGL
Weather: BR  (mist)

Find All Airport Services Find A Hotel Find A Rental Car Find A Golf Course Find A Restaurant $100 Hamburger



FBO's on the Field
FBO Company Facility Photos Services Transportation Aviation Fuel Prices: Prices include tax
Catering Weather Repair Courtesy Rental Type 100LL JetA JetA+ MOGAS 8087
 
Glacier Jet Center

Glacier Jet Center logo
Currently rated 3.6 by 1 person
FS:
Last Updated: Nov-11
Login to update fuel prices
SS:
Contact Glacier Jet CenterMore FBO Information
 
Jorgensen Air Service

Jorgensen Air Service logo
Currently rated 4.7 by 3 people
FS:
Last Updated: Dec-17
Login to update fuel prices
SS:
Contact Jorgensen Air ServiceMore FBO Information
 
Add another FBO Facility Photos Catering Weather Repair Courtesy Rental Type 100LL JetA JetA+ MOGAS 8087
Services Transportation Aviation Fuel Prices: Prices include tax


model-print
model-print
model-print
model-print